createdAt,value
2023-02-05T02:26:42.942Z,6.43
2023-02-05T02:28:25.299Z,6.43
2023-02-05T02:30:14.995Z,7.10
2023-02-05T02:31:52.156Z,5.95
2023-02-05T02:33:34.907Z,6.95
2023-02-05T02:35:41.994Z,7.32
2023-02-05T02:37:37.191Z,7.38
2023-02-05T02:39:09.080Z,7.35
2023-02-05T02:40:45.254Z,6.00
2023-02-05T02:42:23.784Z,6.85
2023-02-05T02:44:00.205Z,6.93
2023-02-05T02:45:35.064Z,7.40
2023-02-05T02:47:38.844Z,6.00
2023-02-05T02:49:16.188Z,7.72
2023-02-05T02:50:50.185Z,5.93
2023-02-05T02:52:24.804Z,7.70
2023-02-05T02:53:58.770Z,5.72
2023-02-05T02:55:34.902Z,6.10
2023-02-05T02:57:09.166Z,6.80
2023-02-05T02:58:49.965Z,5.82
2023-02-05T03:00:26.672Z,6.63
2023-02-05T03:02:01.139Z,4.80
2023-02-05T03:03:37.469Z,7.18
2023-02-05T03:05:12.427Z,6.20
2023-02-05T03:06:47.824Z,7.70
2023-02-05T03:08:33.318Z,5.97
2023-02-05T03:10:15.828Z,5.65
2023-02-05T03:11:48.237Z,7.15
2023-02-05T03:13:20.447Z,5.57
2023-02-05T03:14:53.248Z,6.22
2023-02-05T03:16:27.496Z,4.65
2023-02-05T03:17:59.676Z,6.72
2023-02-05T03:19:31.914Z,7.07
2023-02-05T03:21:08.420Z,7.65
2023-02-05T03:22:40.526Z,7.80
2023-02-05T03:24:13.419Z,5.72
2023-02-05T03:25:45.571Z,6.75
2023-02-05T03:27:17.672Z,6.10
2023-02-05T03:28:49.727Z,6.28
2023-02-05T03:32:34.376Z,6.32
2023-02-05T03:34:31.342Z,7.60
2023-02-05T03:36:22.012Z,7.13
2023-02-05T03:38:33.950Z,6.07
2023-02-05T03:40:11.657Z,7.28
2023-02-05T03:41:56.635Z,5.22
2023-02-05T03:43:49.463Z,6.03
2023-02-05T03:45:32.599Z,6.47
2023-02-05T03:47:16.667Z,5.15
2023-02-05T03:49:20.156Z,5.32
2023-02-05T03:51:07.121Z,6.85
2023-02-05T03:52:45.328Z,7.93
2023-02-05T03:54:37.551Z,7.20
2023-02-05T03:56:17.068Z,6.65
2023-02-05T03:58:09.538Z,7.78
2023-02-05T03:59:41.568Z,8.20
2023-02-05T04:01:13.883Z,6.72
2023-02-05T04:02:46.067Z,9.15
2023-02-05T04:04:18.412Z,15.05
2023-02-05T04:05:50.450Z,9.85
2023-02-05T04:07:22.595Z,9.63
2023-02-05T04:08:54.729Z,11.05
2023-02-05T04:10:26.718Z,10.40
2023-02-05T04:11:58.753Z,7.13
2023-02-05T04:13:30.956Z,8.75
2023-02-05T04:15:03.572Z,11.07
2023-02-05T04:16:35.691Z,14.57
2023-02-05T04:18:08.737Z,14.52
2023-02-05T04:19:43.327Z,10.90
2023-02-05T04:21:15.399Z,7.15
2023-02-05T04:22:47.450Z,7.40
2023-02-05T04:24:19.551Z,9.18
2023-02-05T04:25:55.453Z,8.18
2023-02-05T04:27:27.491Z,10.02
2023-02-05T04:28:59.534Z,9.38
2023-02-05T04:30:32.249Z,7.80
2023-02-05T04:32:04.458Z,7.88
2023-02-05T04:35:14.897Z,7.30
2023-02-05T04:36:47.113Z,7.80
2023-02-05T04:38:19.154Z,7.05
2023-02-05T04:39:51.782Z,7.47
2023-02-05T04:41:23.821Z,6.23
2023-02-05T04:42:56.030Z,7.15
2023-02-05T04:44:28.767Z,8.07
2023-02-05T04:46:08.287Z,7.00
2023-02-05T04:47:40.568Z,7.90
2023-02-05T04:49:12.792Z,8.15
2023-02-05T04:50:44.877Z,7.03
2023-02-05T04:52:16.927Z,7.45
2023-02-05T04:53:49.053Z,9.30
2023-02-05T04:55:21.192Z,9.02
2023-02-05T04:56:53.187Z,10.32
2023-02-05T04:58:25.209Z,11.13
2023-02-05T04:59:57.441Z,8.80
2023-02-05T05:01:29.557Z,9.63
2023-02-05T05:03:01.780Z,9.18
2023-02-05T05:04:33.847Z,10.27
2023-02-05T05:06:06.701Z,9.15
2023-02-05T05:07:39.157Z,9.45
2023-02-05T05:09:11.267Z,10.60
2023-02-05T05:10:43.385Z,9.02
2023-02-05T05:12:15.603Z,9.10
2023-02-05T05:13:49.586Z,9.07
2023-02-05T05:15:21.745Z,9.63
2023-02-05T05:16:53.904Z,9.35
2023-02-05T05:18:26.135Z,8.98
2023-02-05T05:19:58.202Z,9.18
2023-02-05T05:21:30.376Z,9.18
2023-02-05T05:23:02.402Z,10.55
2023-02-05T05:24:34.614Z,8.85
2023-02-05T05:26:12.101Z,9.23
2023-02-05T05:27:44.393Z,10.65
2023-02-05T05:29:16.530Z,9.20
2023-02-05T05:30:48.963Z,9.30
2023-02-05T05:32:21.203Z,9.18
2023-02-05T05:33:53.565Z,10.07
2023-02-05T05:35:25.810Z,9.68
2023-02-05T05:36:58.035Z,9.95
